Sulphur, OK (73086)

12:13 PM CDT on July 25, 2014 (GMT -0500)
KOKSULPH2 Elev 980 ft | 34.50 °N, 96.99 °W | Change Station
Active Advisory: Heat Advisory

Current weather conditions updated 5 seconds ago

Clear
Clear
88.9 °F
Feels Like 98 °F
N
3.1
Wind Variable Wind from SSE
Gusts 11.0 mph

Today is forecast to be Warmer than yesterday.

Today
High -- | Low -- °F
--% Chance of Precip.
Yesterday
High -- | Low -- °F
Precip. -- in
6:33 AM 8:35 PM
Waning Crescent, 1% visible
Pressure 29.99 in
Visibility 10.0 miles
Clouds Clear
Heat Index 98 °F
Dew Point 73 °F
Humidity 61%
Rainfall 0.00 in
Snow Depth Not available.
UV 10 out of 12
Pollen 6.00 out of 12
Air Quality Not available.
Flu Activity Not available.
METAR KADM 251655Z 19006KT 10SM SKC 32/23 A2999

More Conditions Fewer Conditions

Pressure 29.99 in
Visibility 10.0 miles
Clouds Clear
Heat Index 98 °F
Dew Point 73 °F
Humidity 61%
Rainfall 0.00 in
Snow Depth Not available.
UV 10 out of 12
Pollen 6.00 out of 12
Air Quality Not available.
Flu Activity Not available.
METAR KADM 251655Z 19006KT 10SM SKC 32/23 A2999

More Conditions Fewer Conditions

10-Day Weather Forecast

Almanac

Astronomy

Jul. 25, 2014 Rise Set
Actual Time 6:33 AM CDT 8:35 PM CDT
Civil Twilight 6:05 AM CDT 9:03 PM CDT
Nautical Twilight 5:31 AM CDT 9:37 PM CDT
Astronomical Twilight 4:54 AM CDT 10:13 PM CDT
Moon 5:32 AM CDT 7:35 PM CDT
Length of Visible Light 14h 57m
Length of Day
14h 01m
Tomorrow will be 1m 26s shorter.
Waning Crescent, 1% of the Moon is Illuminated
Today
Waning Crescent
Jul 26
New
Aug 3
First Quarter
Aug 10
Full
Aug 17
Last Quarter

Today's Extremes

State Highs State Lows

Community

WunderPhotos

Upload Photos

1,737,366 photos uploaded!

Nearby

Snow Depth

Station Depth Elevation
No new snow has been reported.

Earthquake Activity

City Distance Mag. Time & Date
Perry, Oklahoma 127 miles 2.9 7:28 AM CDT
2014-07-20
Spencer, Oklahoma 78 miles 2.7 4:56 PM CDT
2014-07-18
Minimum magnitude displayed is 2.5.

Coastal Water Temperatures

Place Temperature
No Stations Reporting

Nearby Weather Stations

Station Location Temp. Heat Index Dew Point Humidity Wind Precip. Elev Updated Type
Sulphur, OK 88.9 °F 98 °F 73 °F 61% SSE  at  3.1 mph 0.00 in / hr 980 ft 1:13 PM EDT Rapid Fire
Carter County Dist 1, Springer, OK 87.8 °F 96 °F 73 °F 62% SSW  at  0.0 mph 0.00 in / hr 895 ft 11:56 AM CDT Normal
Lake View, Stratford, OK 89.4 °F 98 °F 73 °F 59% SSW  at  7.0 mph 0.00 in / hr 1135 ft 12:10 PM CDT Normal
Dickson Volunteer Fire Department, Ardmore, OK 86.9 °F 94 °F 72 °F 62% SE  at  12.0 mph 0.00 in / hr 866 ft 12:06 PM CDT Normal

Show More Stations Show Fewer Stations